sensor_id;sensor_type;location;lat;lon;timestamp;P1;durP1;ratioP1;P2;durP2;ratioP2
3121;SDS011;1571;52.524;14.104;2023-03-25T00:02:34;2.83;;;2.10;;
3121;SDS011;1571;52.524;14.104;2023-03-25T00:05:03;1.70;;;1.60;;
3121;SDS011;1571;52.524;14.104;2023-03-25T00:07:32;2.10;;;1.73;;
3121;SDS011;1571;52.524;14.104;2023-03-25T00:10:02;3.33;;;1.70;;
3121;SDS011;1571;52.524;14.104;2023-03-25T00:12:31;3.33;;;1.43;;
3121;SDS011;1571;52.524;14.104;2023-03-25T00:14:59;2.17;;;1.97;;
3121;SDS011;1571;52.524;14.104;2023-03-25T00:17:28;1.97;;;1.40;;
3121;SDS011;1571;52.524;14.104;2023-03-25T00:19:58;3.73;;;1.20;;
3121;SDS011;1571;52.524;14.104;2023-03-25T00:22:28;4.70;;;1.50;;
3121;SDS011;1571;52.524;14.104;2023-03-25T00:24:56;2.60;;;1.67;;
3121;SDS011;1571;52.524;14.104;2023-03-25T00:27:24;12.43;;;1.77;;
3121;SDS011;1571;52.524;14.104;2023-03-25T00:29:52;2.40;;;1.60;;
3121;SDS011;1571;52.524;14.104;2023-03-25T00:32:20;4.87;;;1.50;;
3121;SDS011;1571;52.524;14.104;2023-03-25T00:34:49;1.43;;;1.30;;
3121;SDS011;1571;52.524;14.104;2023-03-25T00:37:19;1.83;;;1.70;;
3121;SDS011;1571;52.524;14.104;2023-03-25T00:39:47;2.80;;;1.63;;
3121;SDS011;1571;52.524;14.104;2023-03-25T00:42:16;2.60;;;1.67;;
3121;SDS011;1571;52.524;14.104;2023-03-25T00:44:52;2.70;;;2.23;;
3121;SDS011;1571;52.524;14.104;2023-03-25T00:47:21;2.10;;;1.47;;
3121;SDS011;1571;52.524;14.104;2023-03-25T00:49:50;1.97;;;1.87;;
3121;SDS011;1571;52.524;14.104;2023-03-25T00:52:20;3.27;;;1.90;;
3121;SDS011;1571;52.524;14.104;2023-03-25T00:54:49;1.97;;;1.50;;
3121;SDS011;1571;52.524;14.104;2023-03-25T00:57:20;2.60;;;1.53;;
3121;SDS011;1571;52.524;14.104;2023-03-25T00:59:48;2.17;;;1.73;;
3121;SDS011;1571;52.524;14.104;2023-03-25T01:02:17;2.80;;;1.73;;
3121;SDS011;1571;52.524;14.104;2023-03-25T01:04:47;4.63;;;2.03;;
3121;SDS011;1571;52.524;14.104;2023-03-25T01:07:16;1.90;;;1.70;;
3121;SDS011;1571;52.524;14.104;2023-03-25T01:09:47;1.90;;;1.70;;
3121;SDS011;1571;52.524;14.104;2023-03-25T01:12:16;1.60;;;1.47;;
3121;SDS011;1571;52.524;14.104;2023-03-25T01:14:45;4.10;;;2.47;;
3121;SDS011;1571;52.524;14.104;2023-03-25T01:17:14;2.57;;;1.27;;
3121;SDS011;1571;52.524;14.104;2023-03-25T01:19:42;2.60;;;1.83;;
3121;SDS011;1571;52.524;14.104;2023-03-25T01:22:10;2.20;;;2.03;;
3121;SDS011;1571;52.524;14.104;2023-03-25T01:24:40;2.50;;;1.97;;
3121;SDS011;1571;52.524;14.104;2023-03-25T01:27:10;2.40;;;1.40;;
3121;SDS011;1571;52.524;14.104;2023-03-25T01:29:39;2.77;;;1.40;;
3121;SDS011;1571;52.524;14.104;2023-03-25T01:32:07;3.90;;;1.77;;
3121;SDS011;1571;52.524;14.104;2023-03-25T01:34:35;2.13;;;1.40;;
3121;SDS011;1571;52.524;14.104;2023-03-25T01:37:04;3.20;;;2.90;;
3121;SDS011;1571;52.524;14.104;2023-03-25T01:39:33;1.87;;;1.60;;
3121;SDS011;1571;52.524;14.104;2023-03-25T01:42:02;1.20;;;1.10;;
3121;SDS011;1571;52.524;14.104;2023-03-25T01:47:38;2.20;;;1.60;;
3121;SDS011;1571;52.524;14.104;2023-03-25T01:50:07;1.67;;;1.00;;
3121;SDS011;1571;52.524;14.104;2023-03-25T01:52:41;2.10;;;1.23;;
3121;SDS011;1571;52.524;14.104;2023-03-25T01:55:12;6.23;;;1.67;;
3121;SDS011;1571;52.524;14.104;2023-03-25T01:57:43;2.47;;;1.13;;
3121;SDS011;1571;52.524;14.104;2023-03-25T02:00:13;3.67;;;1.50;;
3121;SDS011;1571;52.524;14.104;2023-03-25T02:02:44;1.23;;;1.10;;
3121;SDS011;1571;52.524;14.104;2023-03-25T02:05:15;4.50;;;1.23;;
3121;SDS011;1571;52.524;14.104;2023-03-25T02:07:47;1.43;;;1.10;;
3121;SDS011;1571;52.524;14.104;2023-03-25T02:10:16;2.13;;;1.13;;
3121;SDS011;1571;52.524;14.104;2023-03-25T02:12:46;3.67;;;1.40;;
3121;SDS011;1571;52.524;14.104;2023-03-25T02:15:15;3.67;;;1.40;;
3121;SDS011;1571;52.524;14.104;2023-03-25T02:23:58;1.43;;;1.27;;
3121;SDS011;1571;52.524;14.104;2023-03-25T02:38:58;2.73;;;2.50;;
3121;SDS011;1571;52.524;14.104;2023-03-25T02:41:31;3.80;;;3.13;;
3121;SDS011;1571;52.524;14.104;2023-03-25T02:44:09;3.60;;;3.30;;
3121;SDS011;1571;52.524;14.104;2023-03-25T02:46:43;3.90;;;3.57;;
3121;SDS011;1571;52.524;14.104;2023-03-25T02:49:18;5.53;;;4.67;;
3121;SDS011;1571;52.524;14.104;2023-03-25T02:51:52;5.20;;;3.70;;
3121;SDS011;1571;52.524;14.104;2023-03-25T02:54:25;3.87;;;2.90;;
3121;SDS011;1571;52.524;14.104;2023-03-25T02:56:59;4.53;;;2.93;;
3121;SDS011;1571;52.524;14.104;2023-03-25T02:59:28;1.83;;;1.73;;
3121;SDS011;1571;52.524;14.104;2023-03-25T03:01:59;3.00;;;2.10;;
3121;SDS011;1571;52.524;14.104;2023-03-25T03:04:31;6.63;;;1.87;;
3121;SDS011;1571;52.524;14.104;2023-03-25T03:07:00;2.37;;;2.10;;
3121;SDS011;1571;52.524;14.104;2023-03-25T03:09:32;3.23;;;2.33;;
3121;SDS011;1571;52.524;14.104;2023-03-25T03:12:09;3.00;;;1.90;;
3121;SDS011;1571;52.524;14.104;2023-03-25T03:14:50;4.20;;;1.80;;
3121;SDS011;1571;52.524;14.104;2023-03-25T03:17:32;2.60;;;1.67;;
3121;SDS011;1571;52.524;14.104;2023-03-25T03:20:12;2.13;;;2.03;;
3121;SDS011;1571;52.524;14.104;2023-03-25T03:22:47;2.07;;;1.93;;
3121;SDS011;1571;52.524;14.104;2023-03-25T03:25:25;2.43;;;2.23;;
3121;SDS011;1571;52.524;14.104;2023-03-25T03:27:59;2.13;;;1.77;;
3121;SDS011;1571;52.524;14.104;2023-03-25T03:30:33;2.20;;;1.40;;
3121;SDS011;1571;52.524;14.104;2023-03-25T03:33:07;3.60;;;2.00;;
3121;SDS011;1571;52.524;14.104;2023-03-25T03:35:44;1.57;;;1.47;;
3121;SDS011;1571;52.524;14.104;2023-03-25T03:38:17;3.93;;;1.50;;
3121;SDS011;1571;52.524;14.104;2023-03-25T03:40:50;2.03;;;1.70;;
3121;SDS011;1571;52.524;14.104;2023-03-25T03:43:23;4.10;;;2.03;;
3121;SDS011;1571;52.524;14.104;2023-03-25T03:45:54;2.27;;;2.07;;
3121;SDS011;1571;52.524;14.104;2023-03-25T03:48:27;2.10;;;2.00;;
3121;SDS011;1571;52.524;14.104;2023-03-25T03:50:59;2.03;;;1.90;;
3121;SDS011;1571;52.524;14.104;2023-03-25T03:53:34;4.50;;;2.17;;
3121;SDS011;1571;52.524;14.104;2023-03-25T03:56:07;3.93;;;1.90;;
3121;SDS011;1571;52.524;14.104;2023-03-25T03:58:39;2.60;;;2.10;;
3121;SDS011;1571;52.524;14.104;2023-03-25T04:01:10;2.10;;;1.90;;
3121;SDS011;1571;52.524;14.104;2023-03-25T04:03:42;2.70;;;2.17;;
3121;SDS011;1571;52.524;14.104;2023-03-25T04:06:18;2.47;;;1.70;;
3121;SDS011;1571;52.524;14.104;2023-03-25T04:08:52;4.20;;;2.30;;
3121;SDS011;1571;52.524;14.104;2023-03-25T04:11:26;2.57;;;2.37;;
3121;SDS011;1571;52.524;14.104;2023-03-25T04:14:00;3.90;;;2.40;;
3121;SDS011;1571;52.524;14.104;2023-03-25T04:16:30;3.00;;;2.50;;
3121;SDS011;1571;52.524;14.104;2023-03-25T04:19:02;2.97;;;1.97;;
3121;SDS011;1571;52.524;14.104;2023-03-25T04:21:31;3.20;;;1.83;;
3121;SDS011;1571;52.524;14.104;2023-03-25T04:23:59;3.20;;;2.10;;
3121;SDS011;1571;52.524;14.104;2023-03-25T04:26:29;2.43;;;1.97;;
3121;SDS011;1571;52.524;14.104;2023-03-25T04:28:59;2.57;;;1.70;;
3121;SDS011;1571;52.524;14.104;2023-03-25T04:31:28;1.50;;;1.40;;
3121;SDS011;1571;52.524;14.104;2023-03-25T04:33:57;3.13;;;1.63;;
3121;SDS011;1571;52.524;14.104;2023-03-25T04:36:28;4.27;;;1.43;;
3121;SDS011;1571;52.524;14.104;2023-03-25T04:38:59;2.63;;;1.40;;
3121;SDS011;1571;52.524;14.104;2023-03-25T04:41:27;2.60;;;1.93;;
3121;SDS011;1571;52.524;14.104;2023-03-25T04:43:59;2.63;;;1.80;;
3121;SDS011;1571;52.524;14.104;2023-03-25T04:46:27;4.60;;;1.83;;
3121;SDS011;1571;52.524;14.104;2023-03-25T04:48:56;5.13;;;1.60;;
3121;SDS011;1571;52.524;14.104;2023-03-25T04:51:26;3.83;;;1.40;;
3121;SDS011;1571;52.524;14.104;2023-03-25T04:53:56;2.30;;;1.40;;
3121;SDS011;1571;52.524;14.104;2023-03-25T04:56:24;1.37;;;1.27;;
3121;SDS011;1571;52.524;14.104;2023-03-25T04:58:53;2.03;;;1.30;;
3121;SDS011;1571;52.524;14.104;2023-03-25T05:01:23;3.00;;;1.40;;
3121;SDS011;1571;52.524;14.104;2023-03-25T05:03:57;2.43;;;1.37;;
3121;SDS011;1571;52.524;14.104;2023-03-25T05:06:31;2.03;;;1.47;;
3121;SDS011;1571;52.524;14.104;2023-03-25T05:09:01;2.50;;;1.30;;
3121;SDS011;1571;52.524;14.104;2023-03-25T05:11:31;6.00;;;1.43;;
3121;SDS011;1571;52.524;14.104;2023-03-25T05:14:03;2.60;;;1.37;;
3121;SDS011;1571;52.524;14.104;2023-03-25T05:16:31;1.53;;;1.43;;
3121;SDS011;1571;52.524;14.104;2023-03-25T05:18:59;2.17;;;1.63;;
3121;SDS011;1571;52.524;14.104;2023-03-25T05:21:29;1.77;;;1.20;;
3121;SDS011;1571;52.524;14.104;2023-03-25T05:23:57;1.87;;;1.00;;
3121;SDS011;1571;52.524;14.104;2023-03-25T05:26:27;1.40;;;1.10;;
3121;SDS011;1571;52.524;14.104;2023-03-25T05:29:00;1.17;;;0.90;;
3121;SDS011;1571;52.524;14.104;2023-03-25T05:31:30;2.23;;;1.17;;
3121;SDS011;1571;52.524;14.104;2023-03-25T05:33:58;4.10;;;1.37;;
3121;SDS011;1571;52.524;14.104;2023-03-25T05:36:26;2.10;;;1.20;;
3121;SDS011;1571;52.524;14.104;2023-03-25T05:38:55;1.30;;;1.20;;
3121;SDS011;1571;52.524;14.104;2023-03-25T05:41:25;2.73;;;1.10;;
3121;SDS011;1571;52.524;14.104;2023-03-25T05:43:59;2.07;;;1.23;;
3121;SDS011;1571;52.524;14.104;2023-03-25T05:46:27;2.13;;;1.70;;
3121;SDS011;1571;52.524;14.104;2023-03-25T05:48:57;1.57;;;1.00;;
3121;SDS011;1571;52.524;14.104;2023-03-25T05:51:27;4.20;;;2.20;;
3121;SDS011;1571;52.524;14.104;2023-03-25T05:53:59;1.50;;;1.00;;
3121;SDS011;1571;52.524;14.104;2023-03-25T05:56:28;1.53;;;1.00;;
3121;SDS011;1571;52.524;14.104;2023-03-25T05:58:57;2.23;;;1.33;;
3121;SDS011;1571;52.524;14.104;2023-03-25T06:01:25;3.50;;;1.33;;
3121;SDS011;1571;52.524;14.104;2023-03-25T06:03:58;1.20;;;1.00;;
3121;SDS011;1571;52.524;14.104;2023-03-25T06:06:30;4.17;;;1.83;;
3121;SDS011;1571;52.524;14.104;2023-03-25T06:09:00;2.97;;;1.10;;
3121;SDS011;1571;52.524;14.104;2023-03-25T06:11:30;3.13;;;1.07;;
3121;SDS011;1571;52.524;14.104;2023-03-25T06:14:03;3.83;;;0.90;;
3121;SDS011;1571;52.524;14.104;2023-03-25T06:16:32;2.33;;;0.90;;
3121;SDS011;1571;52.524;14.104;2023-03-25T06:19:02;2.13;;;0.93;;
3121;SDS011;1571;52.524;14.104;2023-03-25T06:21:33;2.83;;;0.90;;
3121;SDS011;1571;52.524;14.104;2023-03-25T06:24:02;0.90;;;0.80;;
3121;SDS011;1571;52.524;14.104;2023-03-25T06:26:30;2.63;;;0.70;;
3121;SDS011;1571;52.524;14.104;2023-03-25T06:29:00;3.53;;;0.70;;
3121;SDS011;1571;52.524;14.104;2023-03-25T06:31:28;2.53;;;0.70;;
3121;SDS011;1571;52.524;14.104;2023-03-25T06:34:00;1.13;;;0.60;;
3121;SDS011;1571;52.524;14.104;2023-03-25T06:36:30;1.90;;;0.87;;
3121;SDS011;1571;52.524;14.104;2023-03-25T06:39:00;2.00;;;0.67;;
3121;SDS011;1571;52.524;14.104;2023-03-25T06:41:31;1.07;;;0.70;;
3121;SDS011;1571;52.524;14.104;2023-03-25T06:44:11;1.77;;;0.83;;
3121;SDS011;1571;52.524;14.104;2023-03-25T06:46:45;3.07;;;0.60;;
3121;SDS011;1571;52.524;14.104;2023-03-25T06:49:16;0.90;;;0.60;;
3121;SDS011;1571;52.524;14.104;2023-03-25T06:51:45;1.17;;;0.60;;
3121;SDS011;1571;52.524;14.104;2023-03-25T06:54:14;1.60;;;0.60;;
3121;SDS011;1571;52.524;14.104;2023-03-25T06:56:42;2.00;;;0.80;;
3121;SDS011;1571;52.524;14.104;2023-03-25T06:59:10;1.37;;;0.60;;
3121;SDS011;1571;52.524;14.104;2023-03-25T07:01:38;1.90;;;0.73;;
3121;SDS011;1571;52.524;14.104;2023-03-25T07:04:07;0.40;;;0.40;;
3121;SDS011;1571;52.524;14.104;2023-03-25T07:06:35;0.73;;;0.50;;
3121;SDS011;1571;52.524;14.104;2023-03-25T07:09:05;0.60;;;0.60;;
3121;SDS011;1571;52.524;14.104;2023-03-25T07:11:33;1.63;;;0.83;;
3121;SDS011;1571;52.524;14.104;2023-03-25T07:14:01;0.80;;;0.80;;
3121;SDS011;1571;52.524;14.104;2023-03-25T07:16:30;1.37;;;0.60;;
3121;SDS011;1571;52.524;14.104;2023-03-25T07:18:58;0.90;;;0.50;;
3121;SDS011;1571;52.524;14.104;2023-03-25T07:21:26;2.30;;;0.73;;
3121;SDS011;1571;52.524;14.104;2023-03-25T07:23:54;1.90;;;0.60;;
3121;SDS011;1571;52.524;14.104;2023-03-25T07:26:24;1.80;;;0.50;;
3121;SDS011;1571;52.524;14.104;2023-03-25T07:28:52;0.60;;;0.60;;
3121;SDS011;1571;52.524;14.104;2023-03-25T07:31:20;0.70;;;0.50;;
3121;SDS011;1571;52.524;14.104;2023-03-25T07:33:49;0.60;;;0.60;;
3121;SDS011;1571;52.524;14.104;2023-03-25T07:36:18;1.80;;;0.60;;
3121;SDS011;1571;52.524;14.104;2023-03-25T07:38:47;1.27;;;0.50;;
3121;SDS011;1571;52.524;14.104;2023-03-25T07:41:16;4.13;;;0.90;;
3121;SDS011;1571;52.524;14.104;2023-03-25T07:44:03;1.27;;;0.70;;
3121;SDS011;1571;52.524;14.104;2023-03-25T07:46:31;1.43;;;0.50;;
3121;SDS011;1571;52.524;14.104;2023-03-25T07:48:59;1.33;;;0.50;;
3121;SDS011;1571;52.524;14.104;2023-03-25T07:51:28;1.43;;;0.53;;
3121;SDS011;1571;52.524;14.104;2023-03-25T07:53:56;2.00;;;0.40;;
3121;SDS011;1571;52.524;14.104;2023-03-25T07:56:31;0.60;;;0.50;;
3121;SDS011;1571;52.524;14.104;2023-03-25T07:59:00;1.30;;;0.50;;
3121;SDS011;1571;52.524;14.104;2023-03-25T08:01:30;3.07;;;0.57;;
3121;SDS011;1571;52.524;14.104;2023-03-25T08:03:58;0.50;;;0.50;;
3121;SDS011;1571;52.524;14.104;2023-03-25T08:06:26;0.50;;;0.50;;
3121;SDS011;1571;52.524;14.104;2023-03-25T08:08:54;2.50;;;0.50;;
3121;SDS011;1571;52.524;14.104;2023-03-25T08:11:23;0.57;;;0.50;;
3121;SDS011;1571;52.524;14.104;2023-03-25T08:13:51;1.70;;;0.50;;
3121;SDS011;1571;52.524;14.104;2023-03-25T08:16:19;0.90;;;0.70;;
3121;SDS011;1571;52.524;14.104;2023-03-25T08:18:49;1.33;;;0.70;;
3121;SDS011;1571;52.524;14.104;2023-03-25T08:21:18;1.20;;;0.50;;
3121;SDS011;1571;52.524;14.104;2023-03-25T08:23:50;0.60;;;0.60;;
3121;SDS011;1571;52.524;14.104;2023-03-25T08:26:20;1.93;;;0.70;;
3121;SDS011;1571;52.524;14.104;2023-03-25T08:28:48;1.20;;;0.60;;
3121;SDS011;1571;52.524;14.104;2023-03-25T08:31:16;0.50;;;0.50;;
3121;SDS011;1571;52.524;14.104;2023-03-25T08:33:46;1.50;;;0.73;;
3121;SDS011;1571;52.524;14.104;2023-03-25T08:36:15;0.77;;;0.50;;
3121;SDS011;1571;52.524;14.104;2023-03-25T08:38:45;1.43;;;0.60;;
3121;SDS011;1571;52.524;14.104;2023-03-25T08:41:13;0.50;;;0.50;;
3121;SDS011;1571;52.524;14.104;2023-03-25T08:43:42;1.87;;;0.60;;
3121;SDS011;1571;52.524;14.104;2023-03-25T08:46:11;3.23;;;0.90;;
3121;SDS011;1571;52.524;14.104;2023-03-25T08:48:39;0.80;;;0.50;;
3121;SDS011;1571;52.524;14.104;2023-03-25T08:51:09;0.70;;;0.60;;
3121;SDS011;1571;52.524;14.104;2023-03-25T08:53:39;2.83;;;0.70;;
3121;SDS011;1571;52.524;14.104;2023-03-25T08:56:08;2.27;;;0.60;;
3121;SDS011;1571;52.524;14.104;2023-03-25T08:58:37;1.13;;;0.93;;
3121;SDS011;1571;52.524;14.104;2023-03-25T09:01:05;0.70;;;0.70;;
3121;SDS011;1571;52.524;14.104;2023-03-25T09:03:34;0.70;;;0.60;;
3121;SDS011;1571;52.524;14.104;2023-03-25T09:06:03;1.60;;;0.73;;
3121;SDS011;1571;52.524;14.104;2023-03-25T09:08:32;5.80;;;1.27;;
3121;SDS011;1571;52.524;14.104;2023-03-25T09:11:04;0.60;;;0.57;;
3121;SDS011;1571;52.524;14.104;2023-03-25T09:13:32;1.50;;;0.70;;
3121;SDS011;1571;52.524;14.104;2023-03-25T09:16:01;0.80;;;0.50;;
3121;SDS011;1571;52.524;14.104;2023-03-25T09:18:29;3.67;;;0.73;;
3121;SDS011;1571;52.524;14.104;2023-03-25T09:20:58;0.90;;;0.60;;
3121;SDS011;1571;52.524;14.104;2023-03-25T09:23:27;0.80;;;0.60;;
3121;SDS011;1571;52.524;14.104;2023-03-25T09:25:58;1.23;;;0.50;;
3121;SDS011;1571;52.524;14.104;2023-03-25T09:28:29;1.27;;;0.40;;
3121;SDS011;1571;52.524;14.104;2023-03-25T09:30:58;0.50;;;0.40;;
3121;SDS011;1571;52.524;14.104;2023-03-25T09:33:26;0.70;;;0.47;;
3121;SDS011;1571;52.524;14.104;2023-03-25T09:35:55;2.37;;;0.60;;
3121;SDS011;1571;52.524;14.104;2023-03-25T09:38:23;1.17;;;0.50;;
3121;SDS011;1571;52.524;14.104;2023-03-25T09:40:52;1.10;;;0.50;;
3121;SDS011;1571;52.524;14.104;2023-03-25T09:43:23;0.93;;;0.50;;
3121;SDS011;1571;52.524;14.104;2023-03-25T09:46:01;1.33;;;0.70;;
3121;SDS011;1571;52.524;14.104;2023-03-25T09:48:31;1.53;;;0.40;;
3121;SDS011;1571;52.524;14.104;2023-03-25T09:51:04;0.40;;;0.40;;
3121;SDS011;1571;52.524;14.104;2023-03-25T09:53:35;0.60;;;0.50;;
3121;SDS011;1571;52.524;14.104;2023-03-25T09:56:10;0.50;;;0.40;;
3121;SDS011;1571;52.524;14.104;2023-03-25T09:58:44;1.00;;;0.50;;
3121;SDS011;1571;52.524;14.104;2023-03-25T10:01:19;1.27;;;0.40;;
3121;SDS011;1571;52.524;14.104;2023-03-25T10:03:57;3.43;;;0.90;;
3121;SDS011;1571;52.524;14.104;2023-03-25T10:06:35;0.67;;;0.50;;
3121;SDS011;1571;52.524;14.104;2023-03-25T10:09:19;0.93;;;0.40;;
3121;SDS011;1571;52.524;14.104;2023-03-25T10:12:00;1.37;;;0.90;;
3121;SDS011;1571;52.524;14.104;2023-03-25T10:14:36;0.70;;;0.50;;
3121;SDS011;1571;52.524;14.104;2023-03-25T10:17:14;0.50;;;0.50;;
3121;SDS011;1571;52.524;14.104;2023-03-25T10:19:51;0.73;;;0.60;;
3121;SDS011;1571;52.524;14.104;2023-03-25T10:22:26;1.10;;;0.50;;
3121;SDS011;1571;52.524;14.104;2023-03-25T10:25:00;1.40;;;0.60;;
3121;SDS011;1571;52.524;14.104;2023-03-25T10:27:32;0.67;;;0.47;;
3121;SDS011;1571;52.524;14.104;2023-03-25T10:30:10;1.00;;;0.60;;
3121;SDS011;1571;52.524;14.104;2023-03-25T10:32:42;2.33;;;1.23;;
3121;SDS011;1571;52.524;14.104;2023-03-25T10:35:14;0.83;;;0.60;;
3121;SDS011;1571;52.524;14.104;2023-03-25T10:37:46;1.60;;;0.50;;
3121;SDS011;1571;52.524;14.104;2023-03-25T10:40:18;1.40;;;0.70;;
3121;SDS011;1571;52.524;14.104;2023-03-25T10:42:57;1.17;;;0.60;;
3121;SDS011;1571;52.524;14.104;2023-03-25T10:45:38;1.37;;;1.30;;
3121;SDS011;1571;52.524;14.104;2023-03-25T10:48:10;0.70;;;0.70;;
3121;SDS011;1571;52.524;14.104;2023-03-25T10:50:40;0.90;;;0.70;;
3121;SDS011;1571;52.524;14.104;2023-03-25T10:53:13;0.70;;;0.63;;
3121;SDS011;1571;52.524;14.104;2023-03-25T10:55:48;1.10;;;0.57;;
3121;SDS011;1571;52.524;14.104;2023-03-25T10:58:19;1.20;;;0.90;;
3121;SDS011;1571;52.524;14.104;2023-03-25T11:00:49;0.50;;;0.50;;
3121;SDS011;1571;52.524;14.104;2023-03-25T11:03:18;3.70;;;0.50;;
3121;SDS011;1571;52.524;14.104;2023-03-25T11:05:52;0.80;;;0.60;;
3121;SDS011;1571;52.524;14.104;2023-03-25T11:08:21;1.30;;;0.70;;
3121;SDS011;1571;52.524;14.104;2023-03-25T11:10:51;0.60;;;0.57;;
3121;SDS011;1571;52.524;14.104;2023-03-25T11:13:24;0.80;;;0.60;;
3121;SDS011;1571;52.524;14.104;2023-03-25T11:15:55;1.07;;;0.50;;
3121;SDS011;1571;52.524;14.104;2023-03-25T11:18:25;1.70;;;0.57;;
3121;SDS011;1571;52.524;14.104;2023-03-25T11:20:59;0.70;;;0.60;;
3121;SDS011;1571;52.524;14.104;2023-03-25T11:23:30;0.70;;;0.50;;
3121;SDS011;1571;52.524;14.104;2023-03-25T11:26:01;0.90;;;0.50;;
3121;SDS011;1571;52.524;14.104;2023-03-25T11:28:34;0.90;;;0.70;;
3121;SDS011;1571;52.524;14.104;2023-03-25T11:31:07;1.00;;;0.60;;
3121;SDS011;1571;52.524;14.104;2023-03-25T11:33:38;1.43;;;0.60;;
3121;SDS011;1571;52.524;14.104;2023-03-25T11:38:56;0.40;;;0.40;;
3121;SDS011;1571;52.524;14.104;2023-03-25T11:41:27;1.60;;;0.50;;
3121;SDS011;1571;52.524;14.104;2023-03-25T11:43:57;0.73;;;0.50;;
3121;SDS011;1571;52.524;14.104;2023-03-25T11:46:27;0.60;;;0.50;;
3121;SDS011;1571;52.524;14.104;2023-03-25T11:48:56;1.70;;;0.50;;
3121;SDS011;1571;52.524;14.104;2023-03-25T11:51:35;1.30;;;0.60;;
3121;SDS011;1571;52.524;14.104;2023-03-25T11:54:05;0.50;;;0.50;;
3121;SDS011;1571;52.524;14.104;2023-03-25T11:56:36;1.37;;;0.70;;
3121;SDS011;1571;52.524;14.104;2023-03-25T11:59:07;1.97;;;0.70;;
3121;SDS011;1571;52.524;14.104;2023-03-25T12:01:40;1.03;;;0.60;;
3121;SDS011;1571;52.524;14.104;2023-03-25T12:04:13;1.17;;;0.60;;
3121;SDS011;1571;52.524;14.104;2023-03-25T12:06:54;0.70;;;0.47;;
3121;SDS011;1571;52.524;14.104;2023-03-25T12:09:25;1.73;;;0.70;;
3121;SDS011;1571;52.524;14.104;2023-03-25T12:11:59;0.50;;;0.50;;
3121;SDS011;1571;52.524;14.104;2023-03-25T12:14:42;1.13;;;0.50;;
3121;SDS011;1571;52.524;14.104;2023-03-25T12:17:24;0.80;;;0.53;;
3121;SDS011;1571;52.524;14.104;2023-03-25T12:20:03;0.50;;;0.50;;
3121;SDS011;1571;52.524;14.104;2023-03-25T12:22:46;0.87;;;0.53;;
3121;SDS011;1571;52.524;14.104;2023-03-25T12:25:23;1.00;;;0.60;;
3121;SDS011;1571;52.524;14.104;2023-03-25T12:27:58;3.33;;;1.40;;
3121;SDS011;1571;52.524;14.104;2023-03-25T12:30:47;1.00;;;0.60;;
3121;SDS011;1571;52.524;14.104;2023-03-25T12:33:30;0.67;;;0.67;;
3121;SDS011;1571;52.524;14.104;2023-03-25T12:36:13;1.23;;;1.10;;
3121;SDS011;1571;52.524;14.104;2023-03-25T12:38:55;1.43;;;0.57;;
3121;SDS011;1571;52.524;14.104;2023-03-25T12:41:38;1.17;;;0.50;;
3121;SDS011;1571;52.524;14.104;2023-03-25T12:44:17;3.60;;;0.60;;
3121;SDS011;1571;52.524;14.104;2023-03-25T12:47:06;0.67;;;0.40;;
3121;SDS011;1571;52.524;14.104;2023-03-25T12:50:03;0.60;;;0.60;;
3121;SDS011;1571;52.524;14.104;2023-03-25T12:52:54;1.10;;;0.60;;
3121;SDS011;1571;52.524;14.104;2023-03-25T12:55:37;2.30;;;0.50;;
3121;SDS011;1571;52.524;14.104;2023-03-25T12:58:29;0.50;;;0.47;;
3121;SDS011;1571;52.524;14.104;2023-03-25T13:01:12;2.80;;;0.60;;
3121;SDS011;1571;52.524;14.104;2023-03-25T13:03:55;1.37;;;0.63;;
3121;SDS011;1571;52.524;14.104;2023-03-25T13:06:32;4.37;;;0.67;;
3121;SDS011;1571;52.524;14.104;2023-03-25T13:09:08;1.60;;;0.50;;
3121;SDS011;1571;52.524;14.104;2023-03-25T13:11:42;0.50;;;0.50;;
3121;SDS011;1571;52.524;14.104;2023-03-25T13:14:16;6.03;;;0.90;;
3121;SDS011;1571;52.524;14.104;2023-03-25T13:16:48;0.50;;;0.50;;
3121;SDS011;1571;52.524;14.104;2023-03-25T13:19:19;0.60;;;0.40;;
3121;SDS011;1571;52.524;14.104;2023-03-25T13:21:52;3.07;;;0.60;;
3121;SDS011;1571;52.524;14.104;2023-03-25T13:24:26;2.03;;;1.07;;
3121;SDS011;1571;52.524;14.104;2023-03-25T13:27:01;0.80;;;0.60;;
3121;SDS011;1571;52.524;14.104;2023-03-25T13:29:33;3.43;;;0.50;;
3121;SDS011;1571;52.524;14.104;2023-03-25T13:32:07;1.40;;;0.90;;
3121;SDS011;1571;52.524;14.104;2023-03-25T13:34:42;1.50;;;1.00;;
3121;SDS011;1571;52.524;14.104;2023-03-25T13:37:19;1.13;;;0.83;;
3121;SDS011;1571;52.524;14.104;2023-03-25T13:39:56;1.00;;;0.67;;
3121;SDS011;1571;52.524;14.104;2023-03-25T13:42:42;2.63;;;0.73;;
3121;SDS011;1571;52.524;14.104;2023-03-25T13:45:17;0.77;;;0.50;;
3121;SDS011;1571;52.524;14.104;2023-03-25T13:47:47;0.80;;;0.60;;
3121;SDS011;1571;52.524;14.104;2023-03-25T13:50:23;1.13;;;0.60;;
3121;SDS011;1571;52.524;14.104;2023-03-25T13:52:56;1.93;;;0.50;;
3121;SDS011;1571;52.524;14.104;2023-03-25T13:55:31;2.33;;;0.70;;
3121;SDS011;1571;52.524;14.104;2023-03-25T13:58:22;0.50;;;0.40;;
3121;SDS011;1571;52.524;14.104;2023-03-25T14:04:42;1.97;;;0.67;;
3121;SDS011;1571;52.524;14.104;2023-03-25T14:07:34;1.03;;;0.60;;
3121;SDS011;1571;52.524;14.104;2023-03-25T14:10:24;0.90;;;0.90;;
3121;SDS011;1571;52.524;14.104;2023-03-25T14:12:59;2.10;;;0.87;;
3121;SDS011;1571;52.524;14.104;2023-03-25T14:15:33;1.03;;;0.80;;
3121;SDS011;1571;52.524;14.104;2023-03-25T14:18:03;0.70;;;0.50;;
3121;SDS011;1571;52.524;14.104;2023-03-25T14:20:37;2.00;;;0.50;;
3121;SDS011;1571;52.524;14.104;2023-03-25T14:23:11;2.50;;;0.50;;
3121;SDS011;1571;52.524;14.104;2023-03-25T14:25:42;0.50;;;0.40;;
3121;SDS011;1571;52.524;14.104;2023-03-25T14:28:14;1.13;;;0.90;;
3121;SDS011;1571;52.524;14.104;2023-03-25T14:30:47;0.50;;;0.50;;
3121;SDS011;1571;52.524;14.104;2023-03-25T14:39:56;2.03;;;0.80;;
3121;SDS011;1571;52.524;14.104;2023-03-25T14:42:29;0.80;;;0.77;;
3121;SDS011;1571;52.524;14.104;2023-03-25T14:56:59;1.80;;;0.60;;
3121;SDS011;1571;52.524;14.104;2023-03-25T14:59:36;0.70;;;0.60;;
3121;SDS011;1571;52.524;14.104;2023-03-25T15:02:12;2.63;;;0.60;;
3121;SDS011;1571;52.524;14.104;2023-03-25T15:04:43;0.70;;;0.63;;
3121;SDS011;1571;52.524;14.104;2023-03-25T15:07:15;0.50;;;0.50;;
3121;SDS011;1571;52.524;14.104;2023-03-25T15:09:48;3.23;;;0.60;;
3121;SDS011;1571;52.524;14.104;2023-03-25T15:12:20;1.53;;;0.60;;
3121;SDS011;1571;52.524;14.104;2023-03-25T15:14:55;1.00;;;0.50;;
3121;SDS011;1571;52.524;14.104;2023-03-25T15:17:41;1.20;;;0.70;;
3121;SDS011;1571;52.524;14.104;2023-03-25T15:20:12;1.13;;;0.50;;
3121;SDS011;1571;52.524;14.104;2023-03-25T15:26:03;0.70;;;0.67;;
3121;SDS011;1571;52.524;14.104;2023-03-25T15:28:43;2.30;;;1.07;;
3121;SDS011;1571;52.524;14.104;2023-03-25T15:31:32;1.43;;;0.60;;
3121;SDS011;1571;52.524;14.104;2023-03-25T15:34:11;0.70;;;0.60;;
3121;SDS011;1571;52.524;14.104;2023-03-25T15:36:56;0.80;;;0.70;;
3121;SDS011;1571;52.524;14.104;2023-03-25T15:39:45;1.50;;;0.80;;
3121;SDS011;1571;52.524;14.104;2023-03-25T15:42:30;1.17;;;0.60;;
3121;SDS011;1571;52.524;14.104;2023-03-25T15:45:13;0.73;;;0.60;;
3121;SDS011;1571;52.524;14.104;2023-03-25T15:48:08;0.50;;;0.40;;
3121;SDS011;1571;52.524;14.104;2023-03-25T15:53:57;1.77;;;0.50;;
3121;SDS011;1571;52.524;14.104;2023-03-25T15:56:38;0.47;;;0.47;;
3121;SDS011;1571;52.524;14.104;2023-03-25T15:59:11;0.57;;;0.50;;
3121;SDS011;1571;52.524;14.104;2023-03-25T16:01:50;0.50;;;0.40;;
3121;SDS011;1571;52.524;14.104;2023-03-25T16:04:23;1.80;;;0.50;;
3121;SDS011;1571;52.524;14.104;2023-03-25T16:06:59;3.23;;;1.63;;
3121;SDS011;1571;52.524;14.104;2023-03-25T16:09:30;1.00;;;0.60;;
3121;SDS011;1571;52.524;14.104;2023-03-25T16:12:01;0.63;;;0.50;;
3121;SDS011;1571;52.524;14.104;2023-03-25T16:14:30;1.30;;;0.50;;
3121;SDS011;1571;52.524;14.104;2023-03-25T16:17:00;0.50;;;0.40;;
3121;SDS011;1571;52.524;14.104;2023-03-25T16:19:33;1.77;;;0.73;;
3121;SDS011;1571;52.524;14.104;2023-03-25T16:22:12;0.73;;;0.73;;
3121;SDS011;1571;52.524;14.104;2023-03-25T16:24:43;1.67;;;0.50;;
3121;SDS011;1571;52.524;14.104;2023-03-25T16:27:18;0.60;;;0.50;;